sensor_id;sensor_type;location;lat;lon;timestamp;pressure;altitude;pressure_sealevel;temperature
34901;BMP280;21112;51.976;5.660;2024-03-23T00:51:08;99403.81;;;6.85
34901;BMP280;21112;51.976;5.660;2024-03-23T00:53:36;99398.03;;;6.83
34901;BMP280;21112;51.976;5.660;2024-03-23T00:56:02;99402.19;;;6.84
34901;BMP280;21112;51.976;5.660;2024-03-23T00:58:29;99396.38;;;6.83
34901;BMP280;21112;51.976;5.660;2024-03-23T01:01:04;99402.22;;;6.82
34901;BMP280;21112;51.976;5.660;2024-03-23T01:03:34;99395.63;;;6.80
34901;BMP280;21112;51.976;5.660;2024-03-23T01:06:00;99398.13;;;6.80
34901;BMP280;21112;51.976;5.660;2024-03-23T01:08:27;99398.13;;;6.80
34901;BMP280;21112;51.976;5.660;2024-03-23T01:11:22;99403.22;;;6.77
34901;BMP280;21112;51.976;5.660;2024-03-23T01:14:09;99391.56;;;6.76
34901;BMP280;21112;51.976;5.660;2024-03-23T01:16:35;99400.72;;;6.77
34901;BMP280;21112;51.976;5.660;2024-03-23T01:19:01;99383.25;;;6.77
34901;BMP280;21112;51.976;5.660;2024-03-23T01:21:29;99380.69;;;6.78
34901;BMP280;21112;51.976;5.660;2024-03-23T01:23:58;99383.97;;;6.80
34901;BMP280;21112;51.976;5.660;2024-03-23T01:26:25;99383.13;;;6.81
34901;BMP280;21112;51.976;5.660;2024-03-23T01:28:52;99380.63;;;6.81
34901;BMP280;21112;51.976;5.660;2024-03-23T01:31:18;99380.63;;;6.81
34901;BMP280;21112;51.976;5.660;2024-03-23T01:33:45;99369.00;;;6.80
34901;BMP280;21112;51.976;5.660;2024-03-23T01:36:10;99352.28;;;6.82
34901;BMP280;21112;51.976;5.660;2024-03-23T01:38:37;99356.44;;;6.82
34901;BMP280;21112;51.976;5.660;2024-03-23T01:41:02;99348.97;;;6.82
34901;BMP280;21112;51.976;5.660;2024-03-23T01:43:30;99349.78;;;6.82
34901;BMP280;21112;51.976;5.660;2024-03-23T01:45:56;99338.09;;;6.83
34901;BMP280;21112;51.976;5.660;2024-03-23T01:48:23;99324.81;;;6.82
34901;BMP280;21112;51.976;5.660;2024-03-23T01:50:49;99336.47;;;6.82
34901;BMP280;21112;51.976;5.660;2024-03-23T01:53:16;99329.06;;;6.80
34901;BMP280;21112;51.976;5.660;2024-03-23T01:55:43;99333.97;;;6.82
34901;BMP280;21112;51.976;5.660;2024-03-23T01:58:09;99329.06;;;6.80
34901;BMP280;21112;51.976;5.660;2024-03-23T02:00:37;99316.50;;;6.82
34901;BMP280;21112;51.976;5.660;2024-03-23T02:03:21;99317.38;;;6.81
34901;BMP280;21112;51.976;5.660;2024-03-23T02:05:47;99311.50;;;6.82
34901;BMP280;21112;51.976;5.660;2024-03-23T02:08:14;99312.34;;;6.82
34901;BMP280;21112;51.976;5.660;2024-03-23T02:10:40;99309.00;;;6.82
34901;BMP280;21112;51.976;5.660;2024-03-23T02:13:06;99301.50;;;6.82
34901;BMP280;21112;51.976;5.660;2024-03-23T02:15:32;99309.00;;;6.82
34901;BMP280;21112;51.976;5.660;2024-03-23T02:18:00;99300.66;;;6.83
34901;BMP280;21112;51.976;5.660;2024-03-23T02:20:26;99298.22;;;6.81
34901;BMP280;21112;51.976;5.660;2024-03-23T02:22:54;99294.94;;;6.79
34901;BMP280;21112;51.976;5.660;2024-03-23T02:25:19;99296.78;;;6.74
34901;BMP280;21112;51.976;5.660;2024-03-23T02:27:46;99289.31;;;6.73
34901;BMP280;21112;51.976;5.660;2024-03-23T02:30:12;99298.53;;;6.71
34901;BMP280;21112;51.976;5.660;2024-03-23T02:32:38;99292.84;;;6.66
34901;BMP280;21112;51.976;5.660;2024-03-23T02:35:05;99292.16;;;6.61
34901;BMP280;21112;51.976;5.660;2024-03-23T02:37:33;99299.09;;;6.51
34901;BMP280;21112;51.976;5.660;2024-03-23T02:40:01;99296.00;;;6.43
34901;BMP280;21112;51.976;5.660;2024-03-23T02:42:27;99303.63;;;6.39
34901;BMP280;21112;51.976;5.660;2024-03-23T02:44:53;99300.38;;;6.37
34901;BMP280;21112;51.976;5.660;2024-03-23T02:47:20;99298.84;;;6.31
34901;BMP280;21112;51.976;5.660;2024-03-23T02:49:46;99294.84;;;6.26
34901;BMP280;21112;51.976;5.660;2024-03-23T02:52:12;99308.25;;;6.22
34901;BMP280;21112;51.976;5.660;2024-03-23T02:54:38;99306.56;;;6.24
34901;BMP280;21112;51.976;5.660;2024-03-23T02:57:08;99305.75;;;6.22
34901;BMP280;21112;51.976;5.660;2024-03-23T02:59:34;99310.94;;;6.16
34901;BMP280;21112;51.976;5.660;2024-03-23T03:02:01;99301.88;;;6.12
34901;BMP280;21112;51.976;5.660;2024-03-23T03:04:27;99303.63;;;6.10
34901;BMP280;21112;51.976;5.660;2024-03-23T03:06:53;99304.41;;;6.10
34901;BMP280;21112;51.976;5.660;2024-03-23T03:09:19;99308.69;;;6.05
34901;BMP280;21112;51.976;5.660;2024-03-23T03:11:46;99309.66;;;6.01
34901;BMP280;21112;51.976;5.660;2024-03-23T03:14:15;99309.72;;;5.98
34901;BMP280;21112;51.976;5.660;2024-03-23T03:16:42;99314.84;;;5.94
34901;BMP280;21112;51.976;5.660;2024-03-23T03:19:08;99313.22;;;5.93
34901;BMP280;21112;51.976;5.660;2024-03-23T03:21:36;99318.16;;;5.94
34901;BMP280;21112;51.976;5.660;2024-03-23T03:24:05;99316.41;;;5.98
34901;BMP280;21112;51.976;5.660;2024-03-23T03:26:32;99310.47;;;6.02
34901;BMP280;21112;51.976;5.660;2024-03-23T03:28:58;99302.91;;;6.05
34901;BMP280;21112;51.976;5.660;2024-03-23T03:31:26;99304.63;;;6.03
34901;BMP280;21112;51.976;5.660;2024-03-23T03:33:51;99298.09;;;5.99
34901;BMP280;21112;51.976;5.660;2024-03-23T03:36:18;99303.22;;;5.93
34901;BMP280;21112;51.976;5.660;2024-03-23T03:38:44;99309.84;;;5.94
34901;BMP280;21112;51.976;5.660;2024-03-23T03:41:11;99311.66;;;5.89
34901;BMP280;21112;51.976;5.660;2024-03-23T03:43:36;99314.16;;;5.89
34901;BMP280;21112;51.976;5.660;2024-03-23T03:46:03;99307.72;;;5.80
34901;BMP280;21112;51.976;5.660;2024-03-23T03:48:31;99307.91;;;5.71
34901;BMP280;21112;51.976;5.660;2024-03-23T03:50:57;99318.84;;;5.67
34901;BMP280;21112;51.976;5.660;2024-03-23T03:53:23;99318.97;;;5.61
34901;BMP280;21112;51.976;5.660;2024-03-23T03:55:49;99314.97;;;5.56
34901;BMP280;21112;51.976;5.660;2024-03-23T03:58:15;99320.13;;;5.48
34901;BMP280;21112;51.976;5.660;2024-03-23T04:00:42;99328.47;;;5.47
34901;BMP280;21112;51.976;5.660;2024-03-23T04:03:07;99331.09;;;5.41
34901;BMP280;21112;51.976;5.660;2024-03-23T04:05:36;99339.56;;;5.34
34901;BMP280;21112;51.976;5.660;2024-03-23T04:08:05;99340.69;;;5.23
34901;BMP280;21112;51.976;5.660;2024-03-23T04:10:32;99344.28;;;5.11
34901;BMP280;21112;51.976;5.660;2024-03-23T04:12:57;99343.59;;;5.03
34901;BMP280;21112;51.976;5.660;2024-03-23T04:15:25;99349.63;;;4.95
34901;BMP280;21112;51.976;5.660;2024-03-23T04:17:51;99345.47;;;4.94
34901;BMP280;21112;51.976;5.660;2024-03-23T04:20:18;99347.13;;;4.95
34901;BMP280;21112;51.976;5.660;2024-03-23T04:22:45;99355.50;;;4.91
34901;BMP280;21112;51.976;5.660;2024-03-23T04:25:12;99354.72;;;4.89
34901;BMP280;21112;51.976;5.660;2024-03-23T04:27:37;99354.06;;;4.81
34901;BMP280;21112;51.976;5.660;2024-03-23T04:30:11;99355.84;;;4.76
34901;BMP280;21112;51.976;5.660;2024-03-23T04:32:37;99360.88;;;4.73
34901;BMP280;21112;51.976;5.660;2024-03-23T04:35:06;99357.69;;;4.68
34901;BMP280;21112;51.976;5.660;2024-03-23T04:37:32;99364.38;;;4.65
34901;BMP280;21112;51.976;5.660;2024-03-23T04:40:01;99365.28;;;4.61
34901;BMP280;21112;51.976;5.660;2024-03-23T04:42:28;99363.66;;;4.58
34901;BMP280;21112;51.976;5.660;2024-03-23T04:44:57;99367.81;;;4.58
34901;BMP280;21112;51.976;5.660;2024-03-23T04:47:24;99365.38;;;4.56
34901;BMP280;21112;51.976;5.660;2024-03-23T04:49:51;99365.47;;;4.52
34901;BMP280;21112;51.976;5.660;2024-03-23T04:52:18;99368.03;;;4.47
34901;BMP280;21112;51.976;5.660;2024-03-23T04:54:44;99363.09;;;4.46
34901;BMP280;21112;51.976;5.660;2024-03-23T04:57:13;99360.44;;;4.55
34901;BMP280;21112;51.976;5.660;2024-03-23T04:59:40;99371.22;;;4.55
34901;BMP280;21112;51.976;5.660;2024-03-23T05:02:05;99367.06;;;4.54
34901;BMP280;21112;51.976;5.660;2024-03-23T05:04:32;99371.22;;;4.54
34901;BMP280;21112;51.976;5.660;2024-03-23T05:06:58;99377.00;;;4.56
34901;BMP280;21112;51.976;5.660;2024-03-23T05:09:24;99376.88;;;4.60
34901;BMP280;21112;51.976;5.660;2024-03-23T05:11:55;99377.75;;;4.58
34901;BMP280;21112;51.976;5.660;2024-03-23T05:14:23;99394.56;;;4.48
34901;BMP280;21112;51.976;5.660;2024-03-23T05:16:48;99403.69;;;4.48
34901;BMP280;21112;51.976;5.660;2024-03-23T05:19:15;99402.06;;;4.45
34901;BMP280;21112;51.976;5.660;2024-03-23T05:21:42;99403.78;;;4.43
34901;BMP280;21112;51.976;5.660;2024-03-23T05:24:08;99403.88;;;4.39
34901;BMP280;21112;51.976;5.660;2024-03-23T05:26:34;99408.78;;;4.40
34901;BMP280;21112;51.976;5.660;2024-03-23T05:29:00;99401.38;;;4.39
34901;BMP280;21112;51.976;5.660;2024-03-23T05:31:30;99403.88;;;4.37
34901;BMP280;21112;51.976;5.660;2024-03-23T05:33:56;99409.72;;;4.35
34901;BMP280;21112;51.976;5.660;2024-03-23T05:36:23;99404.75;;;4.35
34901;BMP280;21112;51.976;5.660;2024-03-23T05:38:49;99412.22;;;4.35
34901;BMP280;21112;51.976;5.660;2024-03-23T05:41:18;99414.69;;;4.36
34901;BMP280;21112;51.976;5.660;2024-03-23T05:43:44;99418.81;;;4.37
34901;BMP280;21112;51.976;5.660;2024-03-23T05:46:11;99413.84;;;4.37
34901;BMP280;21112;51.976;5.660;2024-03-23T05:48:38;99422.16;;;4.36
34901;BMP280;21112;51.976;5.660;2024-03-23T05:51:04;99417.94;;;4.40
34901;BMP280;21112;51.976;5.660;2024-03-23T05:53:30;99429.44;;;4.45
34901;BMP280;21112;51.976;5.660;2024-03-23T05:56:01;99432.69;;;4.47
34901;BMP280;21112;51.976;5.660;2024-03-23T05:58:29;99445.00;;;4.55
34901;BMP280;21112;51.976;5.660;2024-03-23T06:01:00;99450.72;;;4.60
34901;BMP280;21112;51.976;5.660;2024-03-23T06:03:26;99454.66;;;4.71
34901;BMP280;21112;51.976;5.660;2024-03-23T06:05:55;99454.41;;;4.83
34901;BMP280;21112;51.976;5.660;2024-03-23T06:08:20;99460.78;;;4.96
34901;BMP280;21112;51.976;5.660;2024-03-23T06:10:47;99467.16;;;5.09
34901;BMP280;21112;51.976;5.660;2024-03-23T06:13:13;99471.06;;;5.20
34901;BMP280;21112;51.976;5.660;2024-03-23T06:15:40;99469.97;;;5.33
34901;BMP280;21112;51.976;5.660;2024-03-23T06:18:06;99475.69;;;5.38
34901;BMP280;21112;51.976;5.660;2024-03-23T06:20:33;99482.31;;;5.38
34901;BMP280;21112;51.976;5.660;2024-03-23T06:23:01;99490.66;;;5.37
34901;BMP280;21112;51.976;5.660;2024-03-23T06:25:28;99489.03;;;5.34
34901;BMP280;21112;51.976;5.660;2024-03-23T06:27:54;99496.41;;;5.39
34901;BMP280;21112;51.976;5.660;2024-03-23T06:30:21;99491.19;;;5.49
34901;BMP280;21112;51.976;5.660;2024-03-23T06:32:49;99497.72;;;5.55
34901;BMP280;21112;51.976;5.660;2024-03-23T06:35:15;99503.41;;;5.60
34901;BMP280;21112;51.976;5.660;2024-03-23T06:37:42;99504.31;;;5.57
34901;BMP280;21112;51.976;5.660;2024-03-23T06:40:10;99516.81;;;5.56
34901;BMP280;21112;51.976;5.660;2024-03-23T06:42:37;99517.59;;;5.58
34901;BMP280;21112;51.976;5.660;2024-03-23T06:45:05;99521.69;;;5.60
34901;BMP280;21112;51.976;5.660;2024-03-23T06:47:31;99517.28;;;5.71
34901;BMP280;21112;51.976;5.660;2024-03-23T06:49:59;99521.25;;;5.81
34901;BMP280;21112;51.976;5.660;2024-03-23T06:52:27;99524.50;;;5.85
34901;BMP280;21112;51.976;5.660;2024-03-23T06:54:53;99531.09;;;5.87
34901;BMP280;21112;51.976;5.660;2024-03-23T06:57:23;99527.84;;;5.84
34901;BMP280;21112;51.976;5.660;2024-03-23T06:59:50;99545.16;;;5.90
34901;BMP280;21112;51.976;5.660;2024-03-23T07:02:16;99557.31;;;6.03
34901;BMP280;21112;51.976;5.660;2024-03-23T07:04:45;99570.47;;;6.10
34901;BMP280;21112;51.976;5.660;2024-03-23T07:07:11;99576.13;;;6.16
34901;BMP280;21112;51.976;5.660;2024-03-23T07:09:38;99567.91;;;6.13
34901;BMP280;21112;51.976;5.660;2024-03-23T07:12:04;99556.19;;;6.16
34901;BMP280;21112;51.976;5.660;2024-03-23T07:14:32;99547.72;;;6.22
34901;BMP280;21112;51.976;5.660;2024-03-23T07:16:58;99548.56;;;6.22
34901;BMP280;21112;51.976;5.660;2024-03-23T07:19:25;99542.69;;;6.25
34901;BMP280;21112;51.976;5.660;2024-03-23T07:21:50;99548.31;;;6.33
34901;BMP280;21112;51.976;5.660;2024-03-23T07:24:19;99544.81;;;6.40
34901;BMP280;21112;51.976;5.660;2024-03-23T07:26:45;99546.25;;;6.48
34901;BMP280;21112;51.976;5.660;2024-03-23T07:29:12;99543.72;;;6.50
34901;BMP280;21112;51.976;5.660;2024-03-23T07:31:40;99548.63;;;6.53
34901;BMP280;21112;51.976;5.660;2024-03-23T07:34:08;99550.94;;;6.60
34901;BMP280;21112;51.976;5.660;2024-03-23T07:36:35;99559.88;;;6.69
34901;BMP280;21112;51.976;5.660;2024-03-23T07:39:02;99569.75;;;6.73
34901;BMP280;21112;51.976;5.660;2024-03-23T07:41:29;99562.00;;;6.84
34901;BMP280;21112;51.976;5.660;2024-03-23T07:43:56;99577.81;;;6.83
34901;BMP280;21112;51.976;5.660;2024-03-23T07:46:21;99576.25;;;6.80
34901;BMP280;21112;51.976;5.660;2024-03-23T07:48:51;99578.53;;;6.88
34901;BMP280;21112;51.976;5.660;2024-03-23T07:51:21;99573.41;;;6.92
34901;BMP280;21112;51.976;5.660;2024-03-23T07:53:48;99584.13;;;6.96
34901;BMP280;21112;51.976;5.660;2024-03-23T07:56:14;99603.22;;;6.98
34901;BMP280;21112;51.976;5.660;2024-03-23T07:58:44;99615.41;;;7.10
34901;BMP280;21112;51.976;5.660;2024-03-23T08:01:13;99592.50;;;7.25
34901;BMP280;21112;51.976;5.660;2024-03-23T08:03:43;99603.09;;;7.33
34901;BMP280;21112;51.976;5.660;2024-03-23T08:06:17;99611.91;;;7.46
34901;BMP280;21112;51.976;5.660;2024-03-23T08:08:44;99622.34;;;7.60
34901;BMP280;21112;51.976;5.660;2024-03-23T08:11:11;99641.84;;;7.49
34901;BMP280;21112;51.976;5.660;2024-03-23T08:13:39;99643.31;;;7.56
34901;BMP280;21112;51.976;5.660;2024-03-23T08:16:06;99653.28;;;7.58
34901;BMP280;21112;51.976;5.660;2024-03-23T08:18:32;99670.34;;;7.73
34901;BMP280;21112;51.976;5.660;2024-03-23T08:20:59;99686.16;;;7.73
34901;BMP280;21112;51.976;5.660;2024-03-23T08:23:28;99690.56;;;7.64
34901;BMP280;21112;51.976;5.660;2024-03-23T08:26:01;99687.75;;;7.76
34901;BMP280;21112;51.976;5.660;2024-03-23T08:28:27;99684.91;;;8.17
34901;BMP280;21112;51.976;5.660;2024-03-23T08:30:54;99702.78;;;8.05
34901;BMP280;21112;51.976;5.660;2024-03-23T08:33:20;99710.50;;;8.26
34901;BMP280;21112;51.976;5.660;2024-03-23T08:35:53;99707.44;;;8.46
34901;BMP280;21112;51.976;5.660;2024-03-23T08:38:20;99724.41;;;8.36
34901;BMP280;21112;51.976;5.660;2024-03-23T08:40:56;99761.00;;;8.40
34901;BMP280;21112;51.976;5.660;2024-03-23T08:43:22;99739.75;;;8.81
34901;BMP280;21112;51.976;5.660;2024-03-23T08:45:48;99748.56;;;8.37
34901;BMP280;21112;51.976;5.660;2024-03-23T08:48:15;99736.97;;;8.04
34901;BMP280;21112;51.976;5.660;2024-03-23T08:50:42;99723.28;;;7.88
34901;BMP280;21112;51.976;5.660;2024-03-23T08:53:08;99697.91;;;7.70
34901;BMP280;21112;51.976;5.660;2024-03-23T08:55:34;99695.53;;;7.35
34901;BMP280;21112;51.976;5.660;2024-03-23T08:58:02;99666.94;;;7.14
34901;BMP280;21112;51.976;5.660;2024-03-23T09:00:29;99668.13;;;7.32
34901;BMP280;21112;51.976;5.660;2024-03-23T09:02:55;99669.09;;;6.94
34901;BMP280;21112;51.976;5.660;2024-03-23T09:05:22;99643.97;;;6.67
34901;BMP280;21112;51.976;5.660;2024-03-23T09:07:51;99636.22;;;6.44
34901;BMP280;21112;51.976;5.660;2024-03-23T09:10:18;99638.63;;;6.47
34901;BMP280;21112;51.976;5.660;2024-03-23T09:12:44;99644.81;;;7.91
34901;BMP280;21112;51.976;5.660;2024-03-23T09:15:12;99715.56;;;8.80
34901;BMP280;21112;51.976;5.660;2024-03-23T09:17:38;99743.63;;;9.41
34901;BMP280;21112;51.976;5.660;2024-03-23T09:20:12;99789.16;;;10.04
34901;BMP280;21112;51.976;5.660;2024-03-23T09:22:37;99801.72;;;9.54
34901;BMP280;21112;51.976;5.660;2024-03-23T09:25:04;99781.53;;;9.57
34901;BMP280;21112;51.976;5.660;2024-03-23T09:27:30;99798.34;;;10.04
34901;BMP280;21112;51.976;5.660;2024-03-23T09:29:59;99813.59;;;10.22
34901;BMP280;21112;51.976;5.660;2024-03-23T09:32:31;99797.13;;;10.82
34901;BMP280;21112;51.976;5.660;2024-03-23T09:34:58;99845.91;;;10.98
34901;BMP280;21112;51.976;5.660;2024-03-23T09:37:24;99844.22;;;10.32
34901;BMP280;21112;51.976;5.660;2024-03-23T09:39:50;99845.63;;;9.65
34901;BMP280;21112;51.976;5.660;2024-03-23T09:42:16;99831.75;;;9.55
34901;BMP280;21112;51.976;5.660;2024-03-23T09:44:46;99830.09;;;10.05
34901;BMP280;21112;51.976;5.660;2024-03-23T09:47:15;99805.84;;;9.03
34901;BMP280;21112;51.976;5.660;2024-03-23T09:49:47;99807.66;;;8.43
34901;BMP280;21112;51.976;5.660;2024-03-23T09:52:15;99809.09;;;9.58
34901;BMP280;21112;51.976;5.660;2024-03-23T09:54:51;99824.34;;;10.26
34901;BMP280;21112;51.976;5.660;2024-03-23T09:57:21;99842.31;;;9.89
34901;BMP280;21112;51.976;5.660;2024-03-23T09:59:48;99833.13;;;11.04
34901;BMP280;21112;51.976;5.660;2024-03-23T10:02:15;99838.66;;;11.34
34901;BMP280;21112;51.976;5.660;2024-03-23T10:04:44;99847.47;;;11.85
34901;BMP280;21112;51.976;5.660;2024-03-23T10:07:12;99855.66;;;11.70
34901;BMP280;21112;51.976;5.660;2024-03-23T10:09:40;99864.38;;;12.22
34901;BMP280;21112;51.976;5.660;2024-03-23T10:12:10;99850.75;;;11.46
34901;BMP280;21112;51.976;5.660;2024-03-23T10:14:39;99823.78;;;9.69
34901;BMP280;21112;51.976;5.660;2024-03-23T10:17:25;99809.78;;;7.63
34901;BMP280;21112;51.976;5.660;2024-03-23T10:19:57;99737.09;;;6.70
34901;BMP280;21112;51.976;5.660;2024-03-23T10:22:25;99722.09;;;8.00
34901;BMP280;21112;51.976;5.660;2024-03-23T10:24:52;99746.91;;;9.43
34901;BMP280;21112;51.976;5.660;2024-03-23T10:27:19;99776.09;;;9.93
34901;BMP280;21112;51.976;5.660;2024-03-23T10:29:46;99801.72;;;11.14
34901;BMP280;21112;51.976;5.660;2024-03-23T10:32:13;99849.91;;;10.37
34901;BMP280;21112;51.976;5.660;2024-03-23T10:34:41;99827.75;;;10.92
34901;BMP280;21112;51.976;5.660;2024-03-23T10:37:09;99833.78;;;10.65
34901;BMP280;21112;51.976;5.660;2024-03-23T10:39:39;99831.88;;;10.48
34901;BMP280;21112;51.976;5.660;2024-03-23T10:42:06;99841.19;;;11.12
34901;BMP280;21112;51.976;5.660;2024-03-23T10:44:34;99843.25;;;9.36
34901;BMP280;21112;51.976;5.660;2024-03-23T10:47:04;99853.19;;;8.84
34901;BMP280;21112;51.976;5.660;2024-03-23T10:49:32;99833.59;;;8.97
34901;BMP280;21112;51.976;5.660;2024-03-23T10:51:58;99828.41;;;9.30
34901;BMP280;21112;51.976;5.660;2024-03-23T10:54:32;99845.09;;;10.31
34901;BMP280;21112;51.976;5.660;2024-03-23T10:57:02;99846.63;;;10.57
34901;BMP280;21112;51.976;5.660;2024-03-23T10:59:31;99840.31;;;10.69
34901;BMP280;21112;51.976;5.660;2024-03-23T11:01:57;99847.41;;;10.12
34901;BMP280;21112;51.976;5.660;2024-03-23T11:04:31;99853.44;;;10.98
34901;BMP280;21112;51.976;5.660;2024-03-23T11:06:57;99856.38;;;11.09
34901;BMP280;21112;51.976;5.660;2024-03-23T11:09:40;99859.75;;;11.73
34901;BMP280;21112;51.976;5.660;2024-03-23T11:12:34;99833.53;;;9.52
34901;BMP280;21112;51.976;5.660;2024-03-23T11:15:02;99832.63;;;9.54
34901;BMP280;21112;51.976;5.660;2024-03-23T11:17:34;99835.41;;;9.71
34901;BMP280;21112;51.976;5.660;2024-03-23T11:20:02;99836.84;;;8.73
34901;BMP280;21112;51.976;5.660;2024-03-23T11:22:46;99832.59;;;8.75
34901;BMP280;21112;51.976;5.660;2024-03-23T11:25:18;99814.56;;;8.64
34901;BMP280;21112;51.976;5.660;2024-03-23T11:27:53;99806.19;;;8.92
34901;BMP280;21112;51.976;5.660;2024-03-23T11:30:21;99831.06;;;10.25
34901;BMP280;21112;51.976;5.660;2024-03-23T11:32:52;99835.72;;;11.86
34901;BMP280;21112;51.976;5.660;2024-03-23T11:35:26;99846.56;;;11.25
34901;BMP280;21112;51.976;5.660;2024-03-23T11:38:03;99844.06;;;11.66
34901;BMP280;21112;51.976;5.660;2024-03-23T11:40:31;99837.56;;;10.31
34901;BMP280;21112;51.976;5.660;2024-03-23T11:42:58;99824.66;;;9.16
34901;BMP280;21112;51.976;5.660;2024-03-23T11:45:25;99821.94;;;8.96
34901;BMP280;21112;51.976;5.660;2024-03-23T11:48:02;99812.91;;;8.63
34901;BMP280;21112;51.976;5.660;2024-03-23T11:50:36;99819.94;;;8.79
34901;BMP280;21112;51.976;5.660;2024-03-23T11:53:14;99820.38;;;9.19
34901;BMP280;21112;51.976;5.660;2024-03-23T11:55:47;99844.28;;;11.19
34901;BMP280;21112;51.976;5.660;2024-03-23T11:58:16;99844.97;;;9.60
34901;BMP280;21112;51.976;5.660;2024-03-23T12:00:49;99813.50;;;8.43
34901;BMP280;21112;51.976;5.660;2024-03-23T12:03:18;99793.66;;;8.36
34901;BMP280;21112;51.976;5.660;2024-03-23T12:05:48;99777.00;;;8.64
34901;BMP280;21112;51.976;5.660;2024-03-23T12:08:19;99809.91;;;9.07
34901;BMP280;21112;51.976;5.660;2024-03-23T12:10:50;99826.09;;;9.75
34901;BMP280;21112;51.976;5.660;2024-03-23T12:13:19;99814.41;;;10.23
34901;BMP280;21112;51.976;5.660;2024-03-23T12:15:48;99802.84;;;10.42
34901;BMP280;21112;51.976;5.660;2024-03-23T12:18:14;99812.72;;;10.46
34901;BMP280;21112;51.976;5.660;2024-03-23T12:20:46;99823.22;;;9.85
34901;BMP280;21112;51.976;5.660;2024-03-23T12:23:12;99828.19;;;10.36
34901;BMP280;21112;51.976;5.660;2024-03-23T12:25:39;99814.16;;;11.17
34901;BMP280;21112;51.976;5.660;2024-03-23T12:28:07;99814.53;;;12.10
34901;BMP280;21112;51.976;5.660;2024-03-23T12:30:38;99815.38;;;11.90
34901;BMP280;21112;51.976;5.660;2024-03-23T12:33:06;99813.59;;;10.89
34901;BMP280;21112;51.976;5.660;2024-03-23T12:35:33;99813.69;;;10.42
34901;BMP280;21112;51.976;5.660;2024-03-23T12:37:59;99812.03;;;8.93
34901;BMP280;21112;51.976;5.660;2024-03-23T12:40:26;99747.81;;;8.63
34901;BMP280;21112;51.976;5.660;2024-03-23T12:42:55;99775.34;;;9.42
34901;BMP280;21112;51.976;5.660;2024-03-23T12:45:24;99761.31;;;9.86
34901;BMP280;21112;51.976;5.660;2024-03-23T12:47:49;99775.00;;;11.12
34901;BMP280;21112;51.976;5.660;2024-03-23T12:50:19;99810.25;;;10.44
34901;BMP280;21112;51.976;5.660;2024-03-23T12:52:45;99817.00;;;10.88
34901;BMP280;21112;51.976;5.660;2024-03-23T12:55:12;99806.88;;;10.68
34901;BMP280;21112;51.976;5.660;2024-03-23T12:57:40;99808.06;;;11.23
34901;BMP280;21112;51.976;5.660;2024-03-23T13:00:15;99795.53;;;11.43
34901;BMP280;21112;51.976;5.660;2024-03-23T13:02:44;99802.91;;;10.17
34901;BMP280;21112;51.976;5.660;2024-03-23T13:05:15;99802.16;;;9.65
34901;BMP280;21112;51.976;5.660;2024-03-23T13:07:41;99804.38;;;9.49
34901;BMP280;21112;51.976;5.660;2024-03-23T13:10:08;99799.03;;;9.08
34901;BMP280;21112;51.976;5.660;2024-03-23T13:12:34;99809.13;;;9.05
34901;BMP280;21112;51.976;5.660;2024-03-23T13:15:01;99799.69;;;8.87
34901;BMP280;21112;51.976;5.660;2024-03-23T13:17:27;99788.44;;;8.72
34901;BMP280;21112;51.976;5.660;2024-03-23T13:19:55;99792.22;;;8.85
34901;BMP280;21112;51.976;5.660;2024-03-23T13:22:23;99769.13;;;8.76
34901;BMP280;21112;51.976;5.660;2024-03-23T13:24:50;99769.81;;;9.33
34901;BMP280;21112;51.976;5.660;2024-03-23T13:27:18;99763.03;;;9.10
34901;BMP280;21112;51.976;5.660;2024-03-23T13:29:45;99766.03;;;8.95
34901;BMP280;21112;51.976;5.660;2024-03-23T13:32:12;99778.78;;;8.88
34901;BMP280;21112;51.976;5.660;2024-03-23T13:34:39;99764.09;;;8.76
34901;BMP280;21112;51.976;5.660;2024-03-23T13:37:08;99774.66;;;8.58
34901;BMP280;21112;51.976;5.660;2024-03-23T13:39:38;99750.78;;;8.48
34901;BMP280;21112;51.976;5.660;2024-03-23T13:42:04;99766.31;;;8.59
34901;BMP280;21112;51.976;5.660;2024-03-23T13:44:31;99772.81;;;8.64
34901;BMP280;21112;51.976;5.660;2024-03-23T13:46:56;99782.88;;;8.63
34901;BMP280;21112;51.976;5.660;2024-03-23T13:49:26;99772.28;;;8.53
34901;BMP280;21112;51.976;5.660;2024-03-23T13:51:55;99790.47;;;8.31
34901;BMP280;21112;51.976;5.660;2024-03-23T13:54:25;99795.22;;;8.09
34901;BMP280;21112;51.976;5.660;2024-03-23T13:56:51;99784.84;;;8.23
34901;BMP280;21112;51.976;5.660;2024-03-23T13:59:18;99753.03;;;8.83
34901;BMP280;21112;51.976;5.660;2024-03-23T14:01:44;99735.41;;;9.12
34901;BMP280;21112;51.976;5.660;2024-03-23T14:04:11;99738.41;;;8.97
34901;BMP280;21112;51.976;5.660;2024-03-23T14:06:37;99748.88;;;8.27
34901;BMP280;21112;51.976;5.660;2024-03-23T14:09:07;99734.00;;;7.92
34901;BMP280;21112;51.976;5.660;2024-03-23T14:11:35;99726.69;;;7.84
34901;BMP280;21112;51.976;5.660;2024-03-23T14:14:03;99714.38;;;7.78
34901;BMP280;21112;51.976;5.660;2024-03-23T14:16:31;99715.06;;;7.83
34901;BMP280;21112;51.976;5.660;2024-03-23T14:18:58;99718.50;;;7.79
34901;BMP280;21112;51.976;5.660;2024-03-23T14:21:24;99759.88;;;7.27
34901;BMP280;21112;51.976;5.660;2024-03-23T14:23:51;99701.09;;;6.79
34901;BMP280;21112;51.976;5.660;2024-03-23T14:26:17;99672.84;;;6.42
34901;BMP280;21112;51.976;5.660;2024-03-23T14:28:45;99660.31;;;6.43
34901;BMP280;21112;51.976;5.660;2024-03-23T14:31:11;99636.97;;;7.13
34901;BMP280;21112;51.976;5.660;2024-03-23T14:33:38;99650.50;;;7.67
34901;BMP280;21112;51.976;5.660;2024-03-23T14:36:07;99642.81;;;7.74
34901;BMP280;21112;51.976;5.660;2024-03-23T14:38:34;99650.78;;;7.58
34901;BMP280;21112;51.976;5.660;2024-03-23T14:41:02;99670.47;;;8.26
34901;BMP280;21112;51.976;5.660;2024-03-23T14:43:29;99701.81;;;8.65
34901;BMP280;21112;51.976;5.660;2024-03-23T14:46:09;99689.44;;;8.33
34901;BMP280;21112;51.976;5.660;2024-03-23T14:48:36;99686.16;;;8.85
34901;BMP280;21112;51.976;5.660;2024-03-23T14:51:03;99674.09;;;8.44
34901;BMP280;21112;51.976;5.660;2024-03-23T14:53:35;99657.53;;;8.12
34901;BMP280;21112;51.976;5.660;2024-03-23T14:56:01;99663.91;;;7.93
34901;BMP280;21112;51.976;5.660;2024-03-23T14:58:30;99662.81;;;8.03
34901;BMP280;21112;51.976;5.660;2024-03-23T15:01:06;99670.53;;;9.76
34901;BMP280;21112;51.976;5.660;2024-03-23T15:03:35;99721.03;;;10.79
34901;BMP280;21112;51.976;5.660;2024-03-23T15:06:01;99716.94;;;11.18
34901;BMP280;21112;51.976;5.660;2024-03-23T15:08:28;99720.94;;;11.22
34901;BMP280;21112;51.976;5.660;2024-03-23T15:10:58;99722.81;;;11.17
34901;BMP280;21112;51.976;5.660;2024-03-23T15:13:25;99732.75;;;11.00